Latest Coastal Weather Observations for Whyalla

IDS60701

Issued at 5:01 pm CDT Thursday 11 February 2016 (issued every 10 minutes, with the page automatically refreshed every 10 minutes)

About coastal observations | Map of coastal stations | Coastal observations for SA | Marine services | Other Formats
Station Details ID: 018120 Name: WHYALLA AERO Lat: -33.05 Lon: 137.52 Height: 6.5 m
Data from the previous 72 hours. | See also: Recent months at Whyalla
Date/Time
CDT
Temp

°C
Wind Pressure Rain
since 9am
mm
Weather Cloud Vis
km
Sea
Height
m
Swell
Dir
 
Speed
knots
Gust
knots
hPa Trend Height
m
Period
s
Dir
11/05:00pm 28.6 SSW 21 27 1011.1 - 0.0 - - 10 - - - -
11/04:30pm 29.0 SSW 22 28 1011.3 - 0.0 - - 10 - - - -
11/04:00pm 29.0 S 21 27 1011.4 - 0.0 - - 10 - - - -
11/03:30pm 29.8 SSW 19 26 1011.6 - 0.0 - - 10 - - - -
11/03:00pm 28.8 S 19 23 1011.9 - 0.0 - - 10 - - - -
11/02:30pm 28.9 SSW 17 21 1012.1 - 0.0 - - 10 - - - -
11/02:00pm 28.3 S 15 20 1012.3 - 0.0 - - 10 - - - -
11/01:30pm 27.7 S 14 19 1012.7 - 0.0 - - 10 - - - -
11/01:00pm 26.6 S 12 16 1013.1 - 0.0 - - 10 - - - -
11/12:30pm 25.6 S 13 18 1013.4 - 0.0 - - 10 - - - -
11/12:00pm 24.6 S 15 18 1013.7 - 0.0 - - 10 - - - -
11/11:30am 23.8 S 15 21 1014.3 - 0.0 - - 10 - - - -
11/11:00am 23.3 S 15 20 1014.6 - 0.0 - - 10 - - - -
11/10:30am 22.5 S 15 20 1014.8 - 0.0 - - 10 - - - -
11/10:00am 21.9 S 15 20 1014.8 - 0.0 - - 10 - - - -
11/09:30am 22.5 S 14 21 1014.9 - 0.0 - - 10 - - - -
11/09:00am 21.6 S 15 20 1014.7 - 0.0 - - - - - - -
11/08:30am 21.1 S 14 19 1014.6 - 0.0 - - - - - - -
11/08:00am 20.6 S 14 19 1014.5 - 0.0 - - - - - - -
11/07:30am 20.0 S 11 16 1014.3 - 0.0 - - - - - - -
11/07:00am 19.4 S 10 13 1014.2 - 0.0 - - - - - - -
11/06:30am 19.3 S 11 15 1014.0 - 0.0 - - - - - - -
11/06:00am 19.2 S 11 14 1013.6 - 0.0 - - - - - - -
11/05:30am 19.2 S 11 14 1013.3 - 0.0 - - - - - - -
11/05:00am 19.3 S 11 14 1013.1 - 0.0 - - - - - - -
11/04:30am 19.3 S 11 15 1013.0 - 0.0 - - - - - - -
11/04:00am 18.5 SSW 9 12 1012.9 - 0.0 - - - - - - -
11/03:30am 18.6 SSW 11 15 1012.9 - 0.0 - - - - - - -
11/03:00am 18.7 SSW 11 15 1012.9 - 0.0 - - - - - - -
11/02:30am 18.7 SSW 11 14 1013.0 - 0.0 - - 10 - - - -
11/02:00am 19.1 SSW 11 15 1013.3 - 0.0 - - 10 - - - -
11/01:30am 19.3 SSW 9 13 1013.7 - 0.0 - - 10 - - - -
11/01:00am 20.0 SSW 10 13 1013.6 - 0.0 - - 10 - - - -
11/12:30am 21.1 SSW 13 17 1013.7 - 0.0 - - 10 - - - -
11/12:00am 21.7 SSW 14 18 1013.7 - 0.0 - - 10 - - - -
 
Date/Time
CDT
Temp

°C
Wind Pressure Rain
since 9am
mm
Weather Cloud Vis
km
Sea
Height
m
Swell
Dir
 
Speed
knots
Gust
knots
hPa Trend Height
m
Period
s
Dir
10/11:30pm 22.4 SSW 13 17 1013.8 - 0.0 - - 10 - - - -
10/11:00pm 22.8 SSW 12 16 1013.7 - 0.0 - - 10 - - - -
10/10:30pm 22.3 SSW 14 18 1013.7 - 0.0 - - 10 - - - -
10/10:00pm 22.6 SSW 15 20 1013.3 - 0.0 - - 10 - - - -
10/09:30pm 23.2 SSW 17 24 1012.9 - 0.0 - - 10 - - - -
10/09:00pm 24.1 SSW 15 23 1012.5 - 0.0 - - 10 - - - -
10/08:30pm 25.1 SSW 18 23 1012.4 - 0.0 - - 10 - - - -
10/08:00pm 25.6 SSW 17 23 1012.0 - 0.0 - - 10 - - - -
10/07:30pm 26.0 SSW 17 21 1011.6 - 0.0 - - 10 - - - -
10/07:00pm 26.5 SSW 18 24 1011.3 - 0.0 - - 10 - - - -
10/06:30pm 26.1 S 21 28 1011.0 - 0.0 - - 10 - - - -
10/06:00pm 26.3 S 22 29 1010.9 - 0.0 - - 10 - - - -
10/05:30pm 28.2 S 17 23 1010.7 - 0.0 - - 10 - - - -
10/05:00pm 28.5 S 17 22 1010.6 - 0.0 - - 10 - - - -
10/04:30pm 30.8 S 16 20 1010.8 - 0.0 - - 10 - - - -
10/04:00pm 30.0 S 16 22 1011.1 - 0.0 - - 10 - - - -
10/03:30pm 29.5 SSW 19 24 1011.3 - 0.0 - - 10 - - - -
10/03:00pm 30.4 S 18 23 1011.6 - 0.0 - - 10 - - - -
10/02:30pm 30.4 S 19 24 1011.7 - 0.0 - - 10 - - - -
10/02:00pm 29.9 S 19 25 1011.9 - 0.0 - - 10 - - - -
10/01:30pm 29.4 S 17 22 1012.3 - 0.0 - - 10 - - - -
10/01:00pm 28.4 S 16 21 1012.4 - 0.0 - - 10 - - - -
10/12:30pm 28.6 S 12 18 1012.6 - 0.0 - - 10 - - - -
10/12:00pm 28.3 S 13 17 1013.0 - 0.0 - - 10 - - - -
10/11:30am 27.5 SSW 11 15 1013.1 - 0.0 - - 10 - - - -
10/11:00am 26.3 SSW 13 15 1013.4 - 0.0 - - 10 - - - -
10/10:30am 24.6 SSW 14 18 1013.7 - 0.0 - - 10 - - - -
10/10:00am 24.0 SSW 12 17 1013.9 - 0.0 - - 10 - - - -
10/09:30am 24.0 S 10 14 1013.8 - 0.0 - - 10 - - - -
10/09:00am 22.7 SSW 11 15 1014.0 - 0.0 - - 10 - - - -
10/08:30am 22.0 SSW 11 14 1013.9 - 0.0 - - - - - - -
10/08:00am 21.0 SSW 11 15 1013.9 - 0.0 - - - - - - -
10/07:30am 20.3 SSW 10 13 1013.7 - 0.0 - - - - - - -
10/07:00am 19.8 SSW 11 14 1013.5 - 0.0 - - - - - - -
10/06:30am 19.8 SSW 10 13 1013.2 - 0.0 - - - - - - -
10/06:00am 19.9 SSW 11 13 1013.0 - 0.0 - - - - - - -
10/05:30am 20.0 SSW 11 15 1012.9 - 0.0 - - - - - - -
10/05:00am 20.1 SSW 10 13 1012.8 - 0.0 - - 10 - - - -
10/04:30am 20.2 SSW 7 10 1012.6 - 0.0 - - 10 - - - -
10/04:00am 20.3 SSW 7 9 1012.5 - 0.0 - - 10 - - - -
10/03:30am 20.7 SSW 8 11 1012.8 - 0.0 - - 10 - - - -
10/03:00am 21.0 SSW 8 11 1012.8 - 0.0 - - 10 - - - -
10/02:30am 21.5 SSW 9 11 1013.1 - 0.0 - - 10 - - - -
10/02:00am 22.0 SSW 10 13 1013.1 - 0.0 - - 10 - - - -
10/01:30am 22.3 SW 9 12 1013.5 - 0.0 - - 10 - - - -
10/01:00am 22.7 SW 10 13 1013.7 - 0.0 - - 10 - - - -
10/12:30am 23.0 SSW 11 13 1014.0 - 0.0 - - 10 - - - -
10/12:00am 23.2 SSW 12 17 1014.1 - 0.0 - - 10 - - - -
 
Date/Time
CDT
Temp

°C
Wind Pressure Rain
since 9am
mm
Weather Cloud Vis
km
Sea
Height
m
Swell
Dir
 
Speed
knots
Gust
knots
hPa Trend Height
m
Period
s
Dir
09/11:30pm 23.4 SSW 10 13 1014.4 - 0.0 - - 10 - - - -
09/11:00pm 23.7 SSW 12 16 1014.2 - 0.0 - - 10 - - - -
09/10:30pm 24.2 SSW 12 18 1014.1 - 0.0 - - 10 - - - -
09/10:00pm 24.6 SSW 11 14 1013.9 - 0.0 - - 10 - - - -
09/09:30pm 25.1 SSW 12 17 1013.6 - 0.0 - - 10 - - - -
09/09:00pm 25.6 SSW 13 17 1013.4 - 0.0 - - 10 - - - -
09/08:30pm 26.1 SSW 13 17 1013.2 - 0.0 - - 10 - - - -
09/08:00pm 26.5 S 14 20 1013.1 - 0.0 - - 10 - - - -
09/07:30pm 27.2 S 17 23 1012.8 - 0.0 - - 10 - - - -
09/07:00pm 28.0 S 17 24 1012.7 - 0.0 - - 10 - - - -
09/06:30pm 28.0 S 19 25 1012.8 - 0.0 - - 10 - - - -
09/06:00pm 27.3 S 20 25 1012.9 - 0.0 - - 10 - - - -
09/05:30pm 26.6 S 17 23 1013.1 - 0.0 - - 10 - - - -
09/05:00pm 28.4 S 15 19 1013.2 - 0.0 - - 10 - - - -
09/04:30pm 30.2 SSE 11 14 1013.3 - 0.0 - - 10 - - - -
09/04:00pm 31.1 SSE 10 13 1013.7 - 0.0 - - 10 - - - -
09/03:30pm 31.3 SE 10 13 1014.1 - 0.0 - - 10 - - - -
09/03:00pm 30.8 SSE 9 13 1014.5 - 0.0 - - 10 - - - -
09/02:30pm 30.6 SSE 10 12 1014.8 - 0.0 - - 10 - - - -
09/02:00pm 30.8 SSE 8 11 1015.3 - 0.0 - - 10 - - - -
09/01:30pm 28.9 SSE 8 10 1015.6 - 0.0 - - 10 - - - -
09/01:00pm 29.1 SSE 8 11 1016.0 - 0.0 - - 10 - - - -
09/12:30pm 27.7 S 7 10 1016.4 - 0.0 - - 10 - - - -
09/12:00pm 26.9 S 8 13 1017.0 - 0.0 - - 10 - - - -
09/11:30am 25.6 S 9 13 1017.4 - 0.0 - - 10 - - - -
09/11:00am 24.6 S 9 12 1017.6 - 0.0 - - 10 - - - -
09/10:30am 23.9 S 10 12 1017.7 - 0.0 - - 10 - - - -
09/10:00am 24.0 S 10 14 1017.9 - 0.0 - - 10 - - - -
09/09:30am 22.6 S 11 14 1018.0 - 0.0 - - 10 - - - -
09/09:00am 21.6 S 11 14 1017.9 - 0.0 - - 10 - - - -
09/08:30am 21.1 SSW 11 15 1018.0 - 0.0 - - - - - - -
09/08:00am 19.8 SSW 10 13 1017.9 - 0.0 - - - - - - -
09/07:30am 18.4 SW 8 10 1017.8 - 0.0 - - - - - - -
09/07:00am 17.6 SW 6 9 1017.7 - 0.0 - - - - - - -
09/06:30am 18.1 SW 8 9 1017.5 - 0.0 - - - - - - -
09/06:00am 18.1 SSW 8 11 1017.2 - 0.0 - - - - - - -
09/05:30am 18.4 SSW 8 11 1017.2 - 0.0 - - - - - - -
09/05:00am 18.5 SSW 8 10 1017.0 - 0.0 - - - - - - -
09/04:30am 18.6 SSW 8 11 1017.0 - 0.0 - - - - - - -
09/04:00am 18.5 SSW 8 11 1017.1 - 0.0 - - - - - - -
09/03:30am 18.6 SSW 9 12 1017.2 - 0.0 - - - - - - -
09/03:00am 18.7 SSW 9 12 1017.5 - 0.0 - - - - - - -
09/02:30am 18.9 SW 10 13 1017.8 - 0.0 - - - - - - -
09/02:00am 19.3 SSW 12 15 1018.0 - 0.0 - - 10 - - - -
09/01:30am 19.7 SSW 10 14 1018.3 - 0.0 - - 10 - - - -
09/01:00am 20.6 SSW 12 16 1018.5 - 0.0 - - 10 - - - -
09/12:30am 20.9 S 12 15 1018.8 - 0.0 - - 10 - - - -
09/12:00am 21.1 S 12 16 1019.1 - 0.0 - - 10 - - - -
 
Date/Time
CDT
Temp

°C
Wind Pressure Rain
since 9am
mm
Weather Cloud Vis
km
Sea
Height
m
Swell
Dir
 
Speed
knots
Gust
knots
hPa Trend Height
m
Period
s
Dir
08/11:30pm 21.1 S 10 14 1019.1 - 0.0 - - 10 - - - -
08/11:00pm 21.3 S 11 14 1019.4 - 0.0 - - 10 - - - -
08/10:30pm 21.8 S 12 16 1019.4 - 0.0 - - 10 - - - -
08/10:00pm 22.6 SSE 13 18 1019.1 - 0.0 - - 10 - - - -
08/09:30pm 22.4 SSW 16 20 1018.8 - 0.0 - - 10 - - - -
08/09:00pm 22.6 SSW 17 24 1018.4 - 0.0 - - 10 - - - -
08/08:30pm 23.0 SSW 18 25 1017.9 - 0.0 - - 10 - - - -
08/08:00pm 23.7 SSW 19 27 1017.7 - 0.0 - - 10 - - - -
08/07:30pm 24.5 SSW 19 25 1017.5 - 0.0 - - 10 - - - -
08/07:00pm 25.2 SSW 20 25 1017.3 - 0.0 - - 10 - - - -
08/06:30pm 25.7 SSW 21 28 1017.2 - 0.0 - - 10 - - - -
08/06:00pm 25.7 SSW 20 27 1017.2 - 0.0 - - 10 - - - -
08/05:30pm 26.6 S 21 27 1017.5 - 0.0 - - 10 - - - -

Other Formats:

Comma delimited format used in spreadsheet applications
http://www.bom.gov.au/fwo/IDS60701/IDS60701.95664.axf

JavaScript Object Notation format (JSON) in row-major order
http://www.bom.gov.au/fwo/IDS60701/IDS60701.95664.json